Time;durP1;ratioP1;P1;durP2;ratioP2;P2;SDS_P1;SDS_P2;PMS_P1;PMS_P2;Temp;Humidity;BMP_temperature;BMP_pressure;BME280_temperature;BME280_humidity;BME280_pressure;Samples;Min_cycle;Max_cycle;Signal;HPM_P1;HPM_P2
2022/10/22 00:01:47;;;;;;;14.88;10.80;;;;;;;8.11;65.73;95655.78;5071286;28;20028;-69
2022/10/22 00:04:13;;;;;;;16.50;10.50;;;;;;;8.12;65.78;95649.69;5053403;28;20032;-69
2022/10/22 00:06:38;;;;;;;15.60;9.35;;;;;;;8.09;65.71;95649.88;5071283;28;20032;-69
2022/10/22 00:09:04;;;;;;;14.05;10.82;;;;;;;8.05;65.94;95645.78;5071135;28;20045;-69
2022/10/22 00:11:29;;;;;;;14.87;10.53;;;;;;;8.04;66.17;95652.72;5070985;28;20029;-69
2022/10/22 00:13:54;;;;;;;15.57;10.20;;;;;;;8.07;65.64;95647.34;5071057;28;20028;-70
2022/10/22 00:16:20;;;;;;;15.88;11.10;;;;;;;8.09;65.54;95649.88;5069898;28;20025;-69
2022/10/22 00:18:45;;;;;;;13.88;9.95;;;;;;;7.81;65.80;95630.81;5053095;28;20021;-69
2022/10/22 00:21:11;;;;;;;13.25;10.35;;;;;;;7.87;66.05;95647.72;5071013;28;20035;-69
2022/10/22 00:23:39;;;;;;;14.88;10.70;;;;;;;7.93;65.92;95656.88;5069745;28;20086;-69
2022/10/22 00:26:05;;;;;;;12.50;9.93;;;;;;;7.84;65.99;95642.72;5069645;28;20020;-69
2022/10/22 00:28:30;;;;;;;12.98;9.80;;;;;;;7.93;66.14;95657.69;5053109;28;20150;-69
2022/10/22 00:30:56;;;;;;;13.63;10.27;;;;;;;7.88;66.30;95661.47;5069728;28;20078;-69
2022/10/22 00:33:22;;;;;;;14.10;10.90;;;;;;;7.76;66.19;95639.75;5052985;28;20093;-69
2022/10/22 00:35:48;;;;;;;15.90;10.38;;;;;;;7.77;66.05;95628.47;5069637;28;20032;-69
2022/10/22 00:38:13;;;;;;;15.18;10.50;;;;;;;7.85;66.17;95644.38;5069841;28;20514;-69
2022/10/22 00:40:39;;;;;;;14.35;10.43;;;;;;;7.83;66.09;95635.91;5086574;28;20559;-69
2022/10/22 00:43:04;;;;;;;16.25;10.57;;;;;;;7.86;66.27;95637.47;5073082;28;20043;-69
2022/10/22 00:45:30;;;;;;;13.73;10.35;;;;;;;7.78;66.47;95625.81;5072869;28;20031;-69
2022/10/22 00:47:59;;;;;;;17.45;11.27;;;;;;;7.68;66.53;95623.84;5091235;28;20040;-69
2022/10/22 00:50:38;;;;;;;14.23;10.38;;;;;;;7.63;67.12;95631.03;5089730;28;20090;-69
2022/10/22 00:53:07;;;;;;;13.50;10.18;;;;;;;7.68;66.76;95624.69;5089760;28;20040;-69
2022/10/22 00:55:32;;;;;;;13.85;10.35;;;;;;;7.61;66.84;95619.03;5073023;28;20032;-69
2022/10/22 00:57:58;;;;;;;14.65;9.63;;;;;;;7.63;66.83;95620.69;5089691;28;20036;-69
2022/10/22 01:00:23;;;;;;;13.68;9.95;;;;;;;7.61;66.50;95626.81;5072864;28;20063;-69
2022/10/22 01:02:49;;;;;;;14.75;10.40;;;;;;;7.55;66.75;95629.75;5056108;28;20024;-69
2022/10/22 01:05:15;;;;;;;13.57;10.38;;;;;;;7.60;66.63;95630.31;5072805;28;20028;-69
2022/10/22 01:07:44;;;;;;;13.52;10.07;;;;;;;7.55;66.89;95629.75;5089420;28;20086;-69
2022/10/22 01:10:28;;;;;;;13.50;10.23;;;;;;;7.63;66.69;95620.69;5056284;28;20024;-69
2022/10/22 01:13:02;;;;;;;14.15;10.25;;;;;;;7.54;67.03;95617.72;5093999;28;20679;-69
2022/10/22 01:15:30;;;;;;;14.05;10.82;;;;;;;7.45;66.81;95602.75;5093479;28;20028;-69
2022/10/22 01:17:59;;;;;;;14.95;10.77;;;;;;;7.51;66.79;95607.56;5093569;28;20040;-69
2022/10/22 01:20:37;;;;;;;16.50;10.63;;;;;;;7.49;67.25;95598.22;5076479;28;20056;-69
2022/10/22 01:23:20;;;;;;;14.00;10.70;;;;;;;7.54;67.11;95596.22;5094446;28;20079;-69
2022/10/22 01:26:01;;;;;;;11.90;9.23;;;;;;;7.51;66.88;95586.88;5094589;28;20593;-69
2022/10/22 01:28:45;;;;;;;14.17;10.67;;;;;;;7.41;67.01;95584.91;5093462;28;20032;-69
2022/10/22 01:31:11;;;;;;;12.25;9.30;;;;;;;7.44;67.07;95592.50;5093093;28;20101;-69
2022/10/22 01:33:36;;;;;;;14.18;10.05;;;;;;;7.39;67.12;95583.25;5092942;28;20035;-69
2022/10/22 01:36:02;;;;;;;13.10;10.13;;;;;;;7.32;67.42;95575.94;5076265;28;20028;-68
2022/10/22 01:38:27;;;;;;;13.30;10.45;;;;;;;7.31;67.23;95571.72;5092981;28;20028;-69
2022/10/22 01:40:53;;;;;;;16.30;10.13;;;;;;;7.33;67.41;95575.03;5057249;28;20037;-69
2022/10/22 01:43:18;;;;;;;12.85;9.88;;;;;;;7.26;67.44;95571.97;5072881;28;20467;-69
2022/10/22 01:45:55;;;;;;;13.75;10.30;;;;;;;7.39;67.39;95567.75;5073965;28;20445;-69
2022/10/22 01:48:46;;;;;;;12.32;9.93;;;;;;;7.26;67.79;95564.22;5072825;28;20446;-69
2022/10/22 01:51:11;;;;;;;13.43;10.27;;;;;;;7.28;67.74;95564.13;5073795;28;20032;-69
2022/10/22 01:53:59;;;;;;;13.10;10.65;;;;;;;7.36;67.49;95567.94;5073601;28;20033;-69
2022/10/22 01:56:53;;;;;;;16.13;10.10;;;;;;;7.28;67.55;95577.06;5072435;28;20028;-69
2022/10/22 01:59:52;;;;;;;14.65;9.68;;;;;;;7.32;67.50;95575.94;5073735;28;20111;-69
2022/10/22 02:02:32;;;;;;;12.80;10.32;;;;;;;7.33;67.60;95580.22;5071363;28;20045;-69
2022/10/22 02:05:02;;;;;;;14.50;10.57;;;;;;;7.36;67.25;95575.69;5073647;28;20094;-69
2022/10/22 02:07:31;;;;;;;14.38;9.48;;;;;;;7.34;67.18;95574.09;5056125;28;20043;-69
2022/10/22 02:09:56;;;;;;;12.75;10.00;;;;;;;7.32;67.19;95568.19;5072200;28;20047;-69
2022/10/22 02:12:22;;;;;;;14.35;10.20;;;;;;;7.31;67.41;95582.03;5055431;28;20036;-69
2022/10/22 02:14:47;;;;;;;13.13;9.52;;;;;;;7.16;67.21;95560.50;5055533;28;20517;-69
2022/10/22 02:17:15;;;;;;;13.07;9.65;;;;;;;7.37;66.99;95589.44;5038803;28;20526;-69
2022/10/22 02:19:46;;;;;;;14.07;9.52;;;;;;;7.33;67.04;95590.56;5055530;28;20029;-69
2022/10/22 02:22:11;;;;;;;;;;;;;;;7.25;67.03;95596.16;5056565;28;20274;-69
2022/10/22 02:24:37;;;;;;;12.73;9.77;;;;;;;7.12;67.36;95569.34;5070858;28;20351;-69
2022/10/22 02:27:16;;;;;;;13.10;9.82;;;;;;;7.02;67.52;95571.63;5038477;28;20036;-68
2022/10/22 02:30:01;;;;;;;14.20;9.68;;;;;;;7.07;67.77;95577.34;5055965;28;20048;-69
2022/10/22 02:32:30;;;;;;;15.50;10.25;;;;;;;7.08;67.67;95579.03;5057060;28;20128;-69
2022/10/22 02:34:55;;;;;;;13.98;10.00;;;;;;;7.02;67.72;95565.59;5055466;28;20043;-69
2022/10/22 02:37:21;;;;;;;14.90;9.80;;;;;;;7.06;67.53;95559.38;5038452;28;20028;-68
2022/10/22 02:39:46;;;;;;;13.05;9.15;;;;;;;6.99;67.87;95569.19;5081433;28;20024;-68
2022/10/22 02:42:12;;;;;;;13.05;9.65;;;;;;;6.94;68.02;95587.56;5074976;28;20551;-69
2022/10/22 02:44:37;;;;;;;12.88;10.23;;;;;;;7.01;67.60;95577.69;5058303;28;20028;-68
2022/10/22 02:47:03;;;;;;;13.27;9.80;;;;;;;7.01;67.85;95582.88;5058304;28;20289;-69
2022/10/22 02:49:28;;;;;;;12.25;9.63;;;;;;;7.04;67.50;95582.69;5093295;28;20036;-69
2022/10/22 02:51:54;;;;;;;13.93;9.93;;;;;;;7.00;67.38;95585.56;5092887;28;20040;-69
2022/10/22 02:54:19;;;;;;;14.35;9.80;;;;;;;6.91;67.65;95590.31;5074826;28;20141;-69
2022/10/22 02:56:45;;;;;;;14.27;10.63;;;;;;;6.85;67.56;95600.13;5074786;28;20024;-68
2022/10/22 02:59:10;;;;;;;13.27;10.23;;;;;;;6.87;67.94;95606.88;5092734;28;20032;-69
2022/10/22 03:01:36;;;;;;;16.10;11.88;;;;;;;6.74;68.17;95600.72;5091544;28;20028;-69
2022/10/22 03:04:01;;;;;;;15.20;11.45;;;;;;;6.75;68.19;95602.41;5091419;28;20036;-69
2022/10/22 03:06:27;;;;;;;12.05;9.82;;;;;;;6.77;68.28;95599.72;5092683;28;20028;-69
2022/10/22 03:08:52;;;;;;;13.70;10.50;;;;;;;6.78;68.17;95601.41;5091253;28;20048;-69
2022/10/22 03:11:17;;;;;;;12.80;9.57;;;;;;;6.69;68.35;95598.41;5091198;28;20020;-69
2022/10/22 03:13:43;;;;;;;12.80;9.63;;;;;;;6.67;68.47;95605.41;5074334;28;20024;-69
2022/10/22 03:16:08;;;;;;;12.95;9.93;;;;;;;6.78;68.33;95602.25;5092615;28;20477;-69
2022/10/22 03:18:34;;;;;;;10.85;9.00;;;;;;;6.75;68.25;95596.41;5091070;28;20401;-69
2022/10/22 03:21:05;;;;;;;12.93;9.48;;;;;;;6.67;68.65;95597.66;5091168;28;20043;-68
2022/10/22 03:23:30;;;;;;;;;;;;;;;6.74;68.31;95598.16;5075392;28;20043;-68
2022/10/22 03:25:56;;;;;;;12.55;8.77;;;;;;;6.70;68.09;95579.41;5092292;28;19912;-69
2022/10/22 03:28:21;;;;;;;12.75;9.38;;;;;;;6.68;68.20;95586.41;5091062;28;20490;-68
2022/10/22 03:30:47;;;;;;;13.13;9.50;;;;;;;6.69;68.32;95582.09;5074085;28;20467;-69
2022/10/22 03:33:12;;;;;;;14.30;9.32;;;;;;;6.77;68.15;95573.91;5090996;28;20036;-68
2022/10/22 03:35:41;;;;;;;11.93;9.40;;;;;;;6.76;68.53;95577.41;5091637;28;20028;-69
2022/10/22 03:38:07;;;;;;;17.60;11.30;;;;;;;6.76;67.90;95561.91;5074240;28;20462;-69
2022/10/22 03:40:32;;;;;;;16.75;13.32;;;;;;;6.70;68.20;95582.00;5074517;28;20104;-68
2022/10/22 03:42:57;;;;;;;19.25;14.50;;;;;;;6.44;68.62;95585.19;5071941;28;20036;-69
2022/10/22 03:45:23;;;;;;;25.70;17.58;;;;;;;6.12;69.26;95581.75;5071658;28;20082;-68
2022/10/22 03:47:48;;;;;;;24.88;16.70;;;;;;;6.17;69.28;95585.75;5070581;28;20486;-69
2022/10/22 03:50:14;;;;;;;21.75;14.88;;;;;;;6.17;69.43;95570.25;5070410;28;20028;-69
2022/10/22 03:52:39;;;;;;;19.25;14.35;;;;;;;6.16;69.35;95563.44;5070045;28;20185;-69
2022/10/22 03:55:05;;;;;;;19.92;14.20;;;;;;;5.97;69.46;95540.38;5070216;28;20032;-69
2022/10/22 03:57:31;;;;;;;18.33;13.45;;;;;;;6.16;68.99;95572.94;5053625;28;20037;-69
2022/10/22 03:59:56;;;;;;;18.50;12.15;;;;;;;6.06;68.78;95576.91;5071342;28;20471;-69
2022/10/22 04:02:22;;;;;;;14.60;11.18;;;;;;;5.97;68.77;95583.41;5071499;28;20043;-68
2022/10/22 04:04:47;;;;;;;16.67;11.57;;;;;;;5.98;68.63;95597.94;5053408;28;20032;-69
2022/10/22 04:07:12;;;;;;;15.43;11.40;;;;;;;5.96;68.67;95589.44;5071378;28;20036;-68
2022/10/22 04:09:38;;;;;;;20.35;13.18;;;;;;;5.93;68.83;95589.59;5071287;28;20053;-69
2022/10/22 04:12:05;;;;;;;21.00;12.73;;;;;;;5.93;68.35;95593.00;5070972;28;20029;-69
2022/10/22 04:14:31;;;;;;;19.30;13.77;;;;;;;5.87;68.94;95582.16;5037044;28;20038;-69
2022/10/22 04:16:56;;;;;;;16.90;11.80;;;;;;;5.80;69.12;95585.06;5071095;28;20459;-69
2022/10/22 04:19:22;;;;;;;15.27;10.95;;;;;;;5.76;69.62;95582.72;5069956;28;20020;-69
2022/10/22 04:21:47;;;;;;;14.98;11.18;;;;;;;5.82;69.60;95580.69;5069861;28;20410;-69
2022/10/22 04:24:12;;;;;;;17.02;11.35;;;;;;;5.82;69.61;95578.09;5070977;28;20025;-69
2022/10/22 04:26:38;;;;;;;13.63;10.07;;;;;;;5.81;70.24;95576.41;5069708;28;20505;-69
2022/10/22 04:29:05;;;;;;;12.43;9.20;;;;;;;5.89;70.63;95570.03;5069718;28;20028;-69
2022/10/22 04:31:31;;;;;;;12.20;9.60;;;;;;;5.97;70.80;95549.88;5053145;28;20029;-69
2022/10/22 04:33:57;;;;;;;13.57;9.55;;;;;;;5.92;71.01;95562.13;5052801;28;20478;-69
2022/10/22 04:36:23;;;;;;;12.82;9.85;;;;;;;6.01;70.49;95559.91;5069729;28;20028;-68
2022/10/22 04:38:55;;;;;;;12.73;8.98;;;;;;;6.06;70.41;95561.44;5071161;28;20085;-68
2022/10/22 04:41:23;;;;;;;11.57;9.07;;;;;;;6.04;70.48;95564.09;5073491;28;20027;-68
2022/10/22 04:43:48;;;;;;;12.23;9.45;;;;;;;6.09;70.50;95569.84;5089695;28;20111;-68
2022/10/22 04:46:15;;;;;;;17.10;12.82;;;;;;;6.15;70.91;95579.81;5055527;28;20128;-68
2022/10/22 04:48:41;;;;;;;24.35;16.63;;;;;;;6.05;71.25;95586.41;5073061;28;20028;-69
2022/10/22 04:51:07;;;;;;;17.92;13.50;;;;;;;6.11;71.45;95575.75;5089595;28;20039;-68
2022/10/22 04:53:36;;;;;;;20.95;14.50;;;;;;;6.20;71.69;95575.25;5072891;28;20032;-69
2022/10/22 04:56:15;;;;;;;21.20;13.52;;;;;;;6.30;71.47;95573.03;5089737;28;20109;-69
2022/10/22 04:58:41;;;;;;;18.33;13.43;;;;;;;6.40;71.26;95565.63;5089622;28;20085;-69
2022/10/22 05:01:17;;;;;;;18.33;13.43;;;;;;;6.57;70.39;95573.25;5072772;28;20024;-68
2022/10/22 05:03:43;;;;;;;19.30;13.38;;;;;;;6.58;70.10;95566.38;5090848;28;20048;-69
2022/10/22 05:06:09;;;;;;;15.80;12.63;;;;;;;6.56;70.07;95581.09;5072764;28;20514;-68
2022/10/22 05:08:35;;;;;;;18.92;12.13;;;;;;;6.60;69.70;95583.44;5072749;28;20048;-69
2022/10/22 05:11:00;;;;;;;18.17;11.23;;;;;;;6.53;69.82;95576.94;5090770;28;20043;-68
2022/10/22 05:13:25;;;;;;;14.98;10.35;;;;;;;6.70;69.34;95594.09;5072867;28;20497;-68
2022/10/22 05:15:51;;;;;;;17.17;11.85;;;;;;;6.56;69.59;95584.50;5089424;28;20035;-68
2022/10/22 05:18:16;;;;;;;14.35;10.63;;;;;;;6.46;69.73;95601.41;5091117;28;20036;-69
2022/10/22 05:20:42;;;;;;;18.00;13.05;;;;;;;6.55;70.06;95600.94;5090701;28;20024;-68
2022/10/22 05:23:07;;;;;;;19.58;14.95;;;;;;;6.60;69.88;95610.97;5090811;28;20497;-68
2022/10/22 05:25:38;;;;;;;18.38;13.02;;;;;;;6.67;70.26;95618.31;5090608;28;20383;-69
2022/10/22 05:28:04;;;;;;;18.83;13.60;;;;;;;6.74;70.14;95607.66;5090956;28;20113;-67
2022/10/22 05:30:29;;;;;;;17.17;12.43;;;;;;;6.80;69.88;95604.72;5089381;28;20028;-67
2022/10/22 05:32:55;;;;;;;17.55;12.23;;;;;;;6.92;69.58;95606.66;5072459;28;20036;-67
2022/10/22 05:35:20;;;;;;;15.93;11.52;;;;;;;6.96;68.95;95605.53;5089317;28;20032;-67
2022/10/22 05:37:46;;;;;;;14.40;10.55;;;;;;;6.93;69.01;95609.13;5090792;28;20028;-67
2022/10/22 05:40:11;;;;;;;13.02;10.15;;;;;;;6.93;68.60;95606.53;5089299;28;20028;-67
2022/10/22 05:42:37;;;;;;;11.73;8.85;;;;;;;6.91;68.08;95607.56;5089217;28;20533;-67
2022/10/22 05:45:02;;;;;;;12.23;9.05;;;;;;;6.99;67.90;95615.69;5072360;28;20024;-67
2022/10/22 05:47:29;;;;;;;13.15;9.13;;;;;;;7.02;67.94;95614.69;5072447;28;20032;-67
2022/10/22 05:49:56;;;;;;;10.70;8.60;;;;;;;7.08;67.47;95607.44;5089083;28;20097;-67
2022/10/22 05:52:22;;;;;;;13.98;10.18;;;;;;;7.10;67.93;95612.50;5089272;28;20032;-68
2022/10/22 05:54:47;;;;;;;12.80;10.55;;;;;;;7.13;67.47;95602.84;5072227;28;20489;-68
2022/10/22 05:57:13;;;;;;;13.43;9.88;;;;;;;7.20;67.58;95603.34;5062149;28;20031;-68
2022/10/22 05:59:38;;;;;;;12.00;9.15;;;;;;;7.19;67.93;95595.66;5073488;28;20047;-68
2022/10/22 06:02:03;;;;;;;12.07;9.15;;;;;;;7.31;67.57;95605.31;5055609;28;20043;-68
2022/10/22 06:04:29;;;;;;;12.82;9.35;;;;;;;7.20;67.67;95577.50;5077998;28;20452;-68
2022/10/22 06:06:54;;;;;;;16.23;11.85;;;;;;;7.37;67.37;95605.78;5060109;28;20468;-67
2022/10/22 06:09:21;;;;;;;21.17;16.27;;;;;;;7.32;67.68;95602.63;5081478;28;20414;-68
2022/10/22 06:11:46;;;;;;;27.15;15.07;;;;;;;7.19;68.35;95599.09;5073516;28;20078;-68
2022/10/22 06:14:12;;;;;;;19.55;14.30;;;;;;;7.28;68.51;95608.91;5070779;28;20020;-68
2022/10/22 06:16:37;;;;;;;21.05;14.93;;;;;;;7.47;67.69;95606.09;5066351;28;20441;-69
2022/10/22 06:19:03;;;;;;;20.67;15.07;;;;;;;7.49;67.71;95604.22;5066461;28;20032;-70
2022/10/22 06:21:29;;;;;;;19.90;14.32;;;;;;;7.47;68.39;95593.16;5070734;28;20040;-70
2022/10/22 06:23:55;;;;;;;21.00;15.10;;;;;;;7.49;68.26;95603.41;5070212;28;20035;-71
2022/10/22 06:26:21;;;;;;;26.80;16.52;;;;;;;7.50;68.79;95611.09;5082784;28;20047;-69
2022/10/22 06:28:46;;;;;;;29.20;16.77;;;;;;;7.55;68.55;95622.00;5063691;28;20485;-68
2022/10/22 06:31:11;;;;;;;21.83;15.82;;;;;;;7.56;68.75;95621.06;5079181;28;20509;-68
2022/10/22 06:33:41;;;;;;;26.60;16.50;;;;;;;7.74;68.63;95619.13;5080502;28;20516;-68
2022/10/22 06:36:14;;;;;;;27.85;16.77;;;;;;;7.94;67.99;95627.47;5091320;28;20028;-68
2022/10/22 06:38:40;;;;;;;26.42;15.65;;;;;;;7.98;67.88;95614.28;5088978;28;20024;-68
2022/10/22 06:41:07;;;;;;;29.95;16.77;;;;;;;8.10;67.92;95620.47;5082021;28;20131;-68
2022/10/22 06:43:33;;;;;;;30.02;18.15;;;;;;;8.41;67.10;95627.25;5065400;28;20043;-68
2022/10/22 06:46:03;;;;;;;28.92;17.58;;;;;;;8.81;65.79;95629.94;5072633;28;20496;-68
2022/10/22 06:48:29;;;;;;;23.85;15.02;;;;;;;9.10;65.61;95624.66;5077202;28;20039;-68
2022/10/22 06:50:54;;;;;;;19.45;13.73;;;;;;;9.46;63.91;95624.06;5068407;28;20032;-68
2022/10/22 06:53:19;;;;;;;18.52;13.45;;;;;;;9.66;63.38;95620.13;5075632;28;20047;-68
2022/10/22 06:55:45;;;;;;;18.27;12.80;;;;;;;10.09;61.27;95622.47;5064329;28;20398;-69
2022/10/22 06:58:10;;;;;;;19.20;13.90;;;;;;;10.24;60.22;95613.59;5057142;28;20087;-70
2022/10/22 07:00:36;;;;;;;17.23;13.95;;;;;;;10.19;60.33;95617.47;5067674;28;20482;-68
2022/10/22 07:03:01;;;;;;;20.80;14.88;;;;;;;10.29;60.25;95616.75;5090299;28;20522;-69
2022/10/22 07:05:27;;;;;;;23.88;15.80;;;;;;;10.46;59.95;95610.38;5092032;28;20027;-69
2022/10/22 07:07:52;;;;;;;21.45;15.38;;;;;;;10.95;58.15;95619.94;5080380;28;20522;-74
2022/10/22 07:10:18;;;;;;;22.38;15.50;;;;;;;11.66;57.03;95621.75;5043513;28;20054;-73
2022/10/22 07:12:43;;;;;;;25.15;17.25;;;;;;;12.34;54.68;95612.28;5079513;28;20028;-71
2022/10/22 07:15:09;;;;;;;24.23;16.90;;;;;;;13.09;52.07;95582.91;5081787;28;20024;-71
2022/10/22 07:17:34;;;;;;;23.10;17.15;;;;;;;13.77;50.41;95601.75;5088400;28;20024;-72
2022/10/22 07:20:00;;;;;;;23.00;16.67;;;;;;;14.59;48.30;95591.31;5079506;28;20032;-72
2022/10/22 07:22:25;;;;;;;21.60;16.10;;;;;;;15.42;46.93;95591.88;5081296;28;20044;-71
2022/10/22 07:24:51;;;;;;;21.05;15.55;;;;;;;16.29;44.08;95588.28;5078333;28;20025;-72
2022/10/22 07:27:16;;;;;;;20.48;15.25;;;;;;;16.52;42.67;95589.59;5063077;28;20482;-72
2022/10/22 07:29:41;;;;;;;20.17;15.98;;;;;;;16.73;42.86;95588.53;5085133;28;20555;-70
2022/10/22 07:32:07;;;;;;;24.48;16.15;;;;;;;17.58;41.14;95603.06;5075009;28;20560;-72
2022/10/22 07:34:32;;;;;;;16.60;14.48;;;;;;;18.19;39.11;95585.63;5074088;28;20020;-72
2022/10/22 07:36:58;;;;;;;18.45;14.40;;;;;;;18.79;37.52;95589.25;5071148;28;20497;-70
2022/10/22 07:39:24;;;;;;;19.70;15.05;;;;;;;19.26;37.11;95588.72;5080080;28;20072;-70
2022/10/22 07:41:50;;;;;;;36.60;15.57;;;;;;;19.11;36.78;95575.34;5079743;28;20064;-69
2022/10/22 07:44:15;;;;;;;17.92;14.70;;;;;;;19.51;36.39;95579.03;5088631;28;20060;-70
2022/10/22 07:46:41;;;;;;;20.10;15.65;;;;;;;20.11;35.12;95583.16;5091657;28;20048;-70
2022/10/22 07:49:06;;;;;;;16.48;14.57;;;;;;;20.49;34.14;95576.31;5077940;28;20032;-70
2022/10/22 07:51:32;;;;;;;19.63;15.48;;;;;;;20.73;34.01;95575.44;5071532;28;20036;-70
2022/10/22 07:53:57;;;;;;;19.25;14.88;;;;;;;20.61;33.55;95564.41;5084653;28;20032;-72
2022/10/22 07:56:23;;;;;;;16.00;13.45;;;;;;;20.54;33.42;95558.19;5077054;28;20032;-73
2022/10/22 07:58:48;;;;;;;17.77;14.30;;;;;;;19.76;34.21;95548.28;5078544;28;20021;-73
2022/10/22 08:01:14;;;;;;;17.42;13.88;;;;;;;19.14;35.86;95551.34;5078329;28;20097;-74
2022/10/22 08:03:39;;;;;;;14.82;13.13;;;;;;;18.60;37.20;95556.91;5081956;28;20024;-72
2022/10/22 08:06:05;;;;;;;16.08;12.05;;;;;;;18.22;37.35;95552.94;5079232;28;20051;-70
2022/10/22 08:08:30;;;;;;;16.88;13.55;;;;;;;17.88;38.54;95552.88;5065822;28;20059;-69
2022/10/22 08:10:57;;;;;;;18.17;13.70;;;;;;;17.63;39.11;95565.81;5061401;28;20035;-71
2022/10/22 08:13:23;;;;;;;18.67;13.88;;;;;;;17.38;39.82;95575.28;5076648;28;20088;-70
2022/10/22 08:15:48;;;;;;;18.50;14.30;;;;;;;17.10;40.33;95553.53;5080285;28;20024;-71
2022/10/22 08:18:14;;;;;;;20.15;14.73;;;;;;;17.03;40.76;95568.25;5079841;28;20070;-72
2022/10/22 08:20:39;;;;;;;20.98;13.63;;;;;;;16.70;41.35;95554.72;5080771;28;20061;-72
2022/10/22 08:23:05;;;;;;;22.85;14.13;;;;;;;16.40;42.07;95556.66;5081200;28;20032;-72
2022/10/22 08:25:31;;;;;;;20.95;15.15;;;;;;;16.48;41.87;95559.38;5060889;28;20032;-71
2022/10/22 08:27:56;;;;;;;17.45;14.15;;;;;;;16.29;42.19;95543.72;5077067;28;20548;-74
2022/10/22 08:30:22;;;;;;;14.57;12.60;;;;;;;16.37;42.51;95549.06;5077009;28;20723;-70
2022/10/22 08:32:47;;;;;;;18.45;12.45;;;;;;;16.19;42.61;95546.41;5076039;28;20119;-71
2022/10/22 08:35:13;;;;;;;16.08;12.55;;;;;;;16.14;43.01;95542.56;5071942;28;20028;-70
2022/10/22 08:37:38;;;;;;;20.10;13.20;;;;;;;16.11;42.26;95529.75;5077104;28;20094;-71
2022/10/22 08:40:04;;;;;;;18.50;13.85;;;;;;;16.13;43.00;95540.88;5081196;28;20452;-70
2022/10/22 08:42:53;;;;;;;19.77;12.60;;;;;;;16.08;42.76;95544.78;5079038;28;20109;-70
2022/10/22 08:45:23;;;;;;;16.77;11.65;;;;;;;16.06;43.02;95544.09;5078278;28;20548;-69
2022/10/22 08:48:10;;;;;;;12.48;10.80;;;;;;;16.08;42.76;95550.03;5059811;28;20086;-68
2022/10/22 08:50:39;;;;;;;16.33;11.45;;;;;;;16.04;43.44;95551.25;5079220;28;20032;-69
2022/10/22 08:53:10;;;;;;;17.08;12.27;;;;;;;15.84;43.89;95544.44;5080672;28;20043;-69
2022/10/22 08:55:35;;;;;;;;;;;;;;;15.60;44.71;95550.94;5077360;28;20054;-72
2022/10/22 08:58:16;;;;;;;18.13;12.90;;;;;;;15.32;45.59;95546.53;5061146;28;19920;-72
2022/10/22 09:01:13;;;;;;;18.13;13.38;;;;;;;15.22;46.31;95550.97;5076138;28;20472;-70
2022/10/22 09:03:46;;;;;;;19.92;14.50;;;;;;;15.48;46.08;95545.97;5073545;28;20039;-70
2022/10/22 09:06:25;;;;;;;15.93;11.90;;;;;;;15.58;45.31;95544.19;5067058;28;20042;-69
2022/10/22 09:08:50;;;;;;;13.57;12.05;;;;;;;15.56;45.53;95541.69;5045021;28;20102;-69
2022/10/22 09:11:32;;;;;;;19.63;13.05;;;;;;;15.07;46.57;95555.75;5052626;28;20437;-69
2022/10/22 09:13:58;;;;;;;20.67;13.88;;;;;;;14.57;47.56;95543.56;5081702;28;20452;-69
2022/10/22 09:17:08;;;;;;;21.08;14.02;;;;;;;14.63;47.60;95540.41;5054738;28;20466;-69
2022/10/22 09:19:54;;;;;;;21.07;14.00;;;;;;;15.10;46.74;95530.16;5066675;28;20097;-70
2022/10/22 09:22:43;;;;;;;15.77;12.93;;;;;;;15.25;46.74;95530.56;5078327;28;20036;-69
2022/10/22 09:25:15;;;;;;;17.67;12.63;;;;;;;15.28;46.58;95525.03;5068702;28;20031;-69
2022/10/22 09:27:40;;;;;;;14.82;12.23;;;;;;;15.35;46.45;95527.94;5084560;28;20028;-69
2022/10/22 09:30:12;;;;;;;16.50;12.98;;;;;;;15.46;45.98;95522.56;5069896;28;20058;-69
2022/10/22 09:32:37;;;;;;;14.50;11.68;;;;;;;15.48;46.07;95519.78;5071157;28;20032;-69
2022/10/22 09:35:03;;;;;;;18.23;12.23;;;;;;;15.62;45.56;95522.78;5091420;28;20043;-69
2022/10/22 09:37:28;;;;;;;17.40;11.35;;;;;;;15.63;45.47;95503.50;5091136;28;20039;-69
2022/10/22 09:39:55;;;;;;;18.90;12.30;;;;;;;15.72;44.89;95504.50;5090994;28;20032;-69
2022/10/22 09:42:20;;;;;;;14.32;12.13;;;;;;;15.71;45.40;95509.84;5057231;28;20585;-70
2022/10/22 09:44:52;;;;;;;14.18;11.60;;;;;;;15.76;45.21;95508.47;5073885;28;20051;-70
2022/10/22 09:47:32;;;;;;;15.15;11.63;;;;;;;15.81;44.98;95494.94;5090825;28;20036;-70
2022/10/22 09:50:10;;;;;;;15.43;12.18;;;;;;;15.79;45.21;95491.63;5092171;28;20021;-71
2022/10/22 09:52:37;;;;;;;14.95;11.38;;;;;;;15.83;45.37;95479.91;5094157;28;20043;-70
2022/10/22 09:55:12;;;;;;;15.02;11.07;;;;;;;15.95;44.76;95477.94;5075177;28;20032;-70
2022/10/22 09:57:38;;;;;;;15.30;10.70;;;;;;;15.74;45.12;95476.38;5092712;28;20173;-69
2022/10/22 10:00:09;;;;;;;14.95;10.98;;;;;;;15.76;45.91;95470.97;5092613;28;20432;-70
2022/10/22 10:02:36;;;;;;;14.25;10.45;;;;;;;15.87;45.24;95473.41;5092382;28;20036;-70
2022/10/22 10:05:02;;;;;;;14.32;10.93;;;;;;;15.90;45.12;95473.13;5059272;28;20028;-70
2022/10/22 10:07:31;;;;;;;12.65;10.90;;;;;;;15.98;45.05;95478.47;5075786;28;20471;-70
2022/10/22 10:09:57;;;;;;;16.20;11.15;;;;;;;16.16;44.49;95478.53;5093745;28;20035;-70
2022/10/22 10:12:40;;;;;;;16.50;11.38;;;;;;;16.17;44.94;95479.38;5058855;28;20024;-69
2022/10/22 10:15:21;;;;;;;15.63;10.55;;;;;;;16.12;44.92;95469.31;5093686;28;20973;-70
2022/10/22 10:18:11;;;;;;;19.38;11.50;;;;;;;15.98;44.40;95465.38;5093488;28;20031;-70
2022/10/22 10:20:46;;;;;;;12.77;10.40;;;;;;;16.03;44.88;95464.94;5077764;28;20040;-70
2022/10/22 10:23:28;;;;;;;11.82;10.13;;;;;;;16.22;44.54;95474.53;5093861;28;20328;-70
2022/10/22 10:26:03;;;;;;;13.45;10.48;;;;;;;16.09;44.75;95474.84;5092392;28;20085;-70
2022/10/22 10:28:31;;;;;;;12.30;10.52;;;;;;;16.16;44.70;95472.47;5092352;28;20021;-69
2022/10/22 10:31:21;;;;;;;11.70;9.43;;;;;;;16.25;44.55;95463.75;5092084;28;20590;-69
2022/10/22 10:34:21;;;;;;;13.07;10.68;;;;;;;16.16;44.73;95451.50;5093215;28;20044;-70
2022/10/22 10:37:26;;;;;;;13.13;10.80;;;;;;;16.34;44.33;95460.22;5078344;28;20024;-70
2022/10/22 10:40:01;;;;;;;13.68;10.10;;;;;;;16.53;43.95;95444.38;5071628;28;20101;-69
2022/10/22 10:42:34;;;;;;;11.93;10.05;;;;;;;16.52;43.98;95441.94;5091936;28;20401;-69
2022/10/22 10:45:16;;;;;;;15.27;10.43;;;;;;;16.43;43.81;95438.38;5090693;28;20032;-70
2022/10/22 10:47:41;;;;;;;;;;;;;;;16.54;43.83;95430.28;5093870;28;20500;-70
2022/10/22 10:50:26;;;;;;;11.40;9.37;;;;;;;16.64;43.64;95413.69;5093040;28;19919;-69
2022/10/22 10:53:16;;;;;;;14.95;10.27;;;;;;;16.56;43.65;95411.78;5076048;28;20298;-69
2022/10/22 10:56:23;;;;;;;13.77;10.05;;;;;;;16.69;43.88;95414.06;5091723;28;20122;-70
2022/10/22 10:59:17;;;;;;;12.25;9.48;;;;;;;16.73;43.67;95410.16;5071457;28;20570;-69
2022/10/22 11:01:58;;;;;;;12.38;9.93;;;;;;;16.73;43.64;95400.47;5082746;28;20113;-69
2022/10/22 11:04:42;;;;;;;;;;;;;;;16.85;43.27;95395.84;5075086;28;20020;-70
2022/10/22 11:07:10;;;;;;;12.77;9.10;;;;;;;16.81;43.36;95386.63;5092804;28;19924;-70
2022/10/22 11:09:43;;;;;;;12.57;9.52;;;;;;;16.89;43.49;95383.25;5074877;28;20110;-69
2022/10/22 11:12:15;;;;;;;12.23;9.93;;;;;;;16.93;43.15;95377.53;5091294;28;20066;-69
2022/10/22 11:14:54;;;;;;;18.77;10.40;;;;;;;16.87;43.07;95378.16;5074710;28;20160;-70
2022/10/22 11:17:20;;;;;;;13.52;10.57;;;;;;;17.00;43.36;95366.47;5074753;28;20130;-69
2022/10/22 11:19:57;;;;;;;12.75;9.77;;;;;;;17.04;42.89;95352.03;5074425;28;20500;-70
2022/10/22 11:22:32;;;;;;;14.55;10.10;;;;;;;17.22;43.01;95365.09;5074596;28;20032;-70
2022/10/22 11:24:59;;;;;;;14.02;9.57;;;;;;;16.96;43.01;95361.50;5091104;28;20024;-70
2022/10/22 11:27:36;;;;;;;12.73;9.65;;;;;;;17.05;43.06;95351.06;5092482;28;20107;-69
2022/10/22 11:30:11;;;;;;;13.25;9.35;;;;;;;17.31;42.82;95351.88;5075103;28;20097;-70
2022/10/22 11:32:37;;;;;;;13.65;9.75;;;;;;;17.37;42.56;95335.50;5074660;28;20032;-70
2022/10/22 11:35:03;;;;;;;13.00;9.75;;;;;;;17.54;42.23;95343.47;5074083;28;20497;-71